Latest Weather Observations for Nambour

IDQ60801

Issued at 11:35 pm EST Thursday 30 October 2014 (issued every 30 minutes, with the page automatically refreshed every 10 minutes)

About weather observations | Map of weather stations | Latest weather observations for QLD | Other Formats
Station Details ID: 040988 Name: NAMBOUR DAFF - HILLSIDE Lat: -26.64 Lon: 152.94 Height: 53.24 m
Data from the previous 72 hours. | See also: Recent months at Nambour
Date/Time
EST
Temp
°C
App
Temp
°C
Dew
Point
Rel
Hum
%
Delta-T
°C
Wind Press
QNH
hPa
Press
MSL
hPa
Rain
since 9 am
mm
Dir
 
Spd
km/h
Gust
km/h
Spd
kts
Gust
kts
30/11:30pm 22.1 25.3 18.9 82 2.0 NNW 0 0 0 0 1016.1 1015.9 0.0
30/11:00pm 22.2 25.4 18.8 81 2.1 NNW 0 0 0 0 1016.5 1016.3 0.0
30/10:30pm 22.3 25.5 18.9 81 2.2 CALM 0 2 0 1 1016.5 1016.3 0.0
30/10:00pm 22.1 24.9 18.9 82 2.0 NW 2 4 1 2 1016.7 1016.5 0.0
30/09:30pm 21.8 24.9 18.6 82 2.0 CALM 0 2 0 1 1016.6 1016.4 0.0
30/09:00pm 21.8 24.4 18.4 81 2.1 NW 2 4 1 2 1016.6 1016.4 0.0
30/08:30pm 22.3 24.9 18.5 79 2.4 N 2 4 1 2 1016.3 1016.1 0.0
30/08:00pm 22.2 24.8 18.4 79 2.4 N 2 4 1 2 1016.1 1015.9 0.0
30/07:30pm 22.5 24.9 18.7 79 2.4 NNE 4 7 2 4 1016.0 1015.8 0.0
30/07:00pm 22.8 25.2 18.8 78 2.5 NE 4 6 2 3 1015.5 1015.3 0.0
30/06:30pm 22.8 24.2 18.6 77 2.7 E 9 15 5 8 1015.2 1015.0 0.0
30/06:00pm 23.0 24.2 18.3 75 3.0 ENE 9 15 5 8 1014.8 1014.6 0.0
30/05:30pm 23.3 24.6 18.4 74 3.1 E 9 17 5 9 1014.6 1014.4 0.0
30/05:00pm 24.0 25.2 18.2 70 3.7 ENE 9 19 5 10 1014.4 1014.2 0.0
30/04:30pm 24.3 24.6 17.8 67 4.1 ENE 13 17 7 9 1014.1 1013.9 0.0
30/04:00pm 24.8 24.7 17.8 65 4.4 ENE 15 20 8 11 1013.9 1013.7 0.0
30/03:30pm 25.2 25.4 17.7 63 4.7 ENE 13 22 7 12 1013.9 1013.7 0.0
30/03:00pm 26.3 26.5 17.6 58 5.5 ENE 13 22 7 12 1013.8 1013.6 0.0
30/02:30pm 26.8 27.0 17.6 57 5.8 E 13 22 7 12 1013.9 1013.7 0.0
30/02:00pm 27.1 27.4 18.7 60 5.4 E 15 20 8 11 1014.1 1013.9 0.0
30/01:30pm 26.4 25.4 17.5 58 5.6 E 19 28 10 15 1014.6 1014.4 0.0
30/01:00pm 26.9 26.6 17.4 56 6.0 E 15 24 8 13 1014.9 1014.7 0.0
30/12:30pm 27.4 27.4 17.3 54 6.3 ENE 13 20 7 11 1015.3 1015.1 0.0
30/12:00pm 27.8 27.6 17.6 53 6.4 E 15 26 8 14 1015.8 1015.6 0.0
30/11:30am 27.7 27.6 16.0 49 7.2 NE 11 19 6 10 1016.1 1015.9 0.0
30/11:00am 27.7 29.2 16.6 50 6.9 E 4 11 2 6 1016.6 1016.4 0.0
30/10:30am 26.7 27.1 16.3 53 6.4 E 9 19 5 10 1017.0 1016.8 0.0
30/10:00am 25.6 26.4 15.9 55 5.9 WSW 6 11 3 6 1017.4 1017.2 0.0
30/09:30am 24.9 26.6 16.3 59 5.3 WSW 2 6 1 3 1017.7 1017.5 0.0
30/09:00am 25.2 26.2 16.4 58 5.4 E 6 11 3 6 1017.9 1017.7 -
30/08:30am 24.0 24.9 16.5 63 4.6 E 7 15 4 8 1018.2 1018.0 -
30/08:00am 24.3 25.9 16.8 63 4.6 SSE 4 11 2 6 1018.1 1017.9 -
30/07:30am 23.7 25.3 17.0 66 4.1 E 4 9 2 5 1018.0 1017.8 -
30/07:00am 22.3 24.0 16.3 69 3.6 SSW 2 6 1 3 1017.9 1017.7 -
30/06:30am 21.4 23.1 16.1 72 3.2 ESE 2 4 1 2 1017.8 1017.6 -
30/06:00am 20.7 22.9 16.5 77 2.5 N 0 4 0 2 1017.4 1017.2 -
30/05:30am 18.9 20.7 15.6 81 2.0 CALM 0 4 0 2 1016.8 1016.6 -
30/05:00am 18.7 20.3 14.8 78 2.3 CALM 0 2 0 1 1016.5 1016.3 -
30/04:30am 19.0 20.6 14.9 77 2.4 CALM 0 6 0 3 1016.2 1016.0 -
30/04:00am 19.1 20.7 15.0 77 2.4 SW 0 0 0 0 1016.0 1015.8 -
30/03:30am 19.4 21.0 14.9 75 2.6 CALM 0 0 0 0 1015.9 1015.7 -
30/03:00am 19.7 21.3 14.9 74 2.8 CALM 0 2 0 1 1015.8 1015.6 0.0
30/02:30am 20.2 22.0 15.6 75 2.7 CALM 0 2 0 1 1015.9 1015.7 -
30/02:00am 20.0 22.1 16.2 79 2.3 CALM 0 0 0 0 1016.0 1015.8 -
30/01:30am 19.5 21.2 16.3 82 1.9 SW 2 4 1 2 1016.0 1015.8 -
30/01:00am 19.5 21.2 16.3 82 1.9 SW 2 6 1 3 1016.2 1016.0 -
30/12:30am 19.6 21.8 16.4 82 1.9 SW 0 0 0 0 1016.3 1016.1 -
30/12:00am 20.1 22.4 16.7 81 2.1 WSW 0 4 0 2 1016.7 1016.5 -
 
Date/Time
EST
Temp
°C
App
Temp
°C
Dew
Point
Rel
Hum
%
Delta-T
°C
Wind Press
QNH
hPa
Press
MSL
hPa
Rain
since 9 am
mm
Dir
 
Spd
km/h
Gust
km/h
Spd
kts
Gust
kts
29/11:30pm 20.7 22.9 16.5 77 2.5 CALM 0 0 0 0 1017.0 1016.8 -
29/11:00pm 21.7 24.1 16.9 74 2.9 CALM 0 4 0 2 1017.2 1017.0 -
29/10:30pm 22.2 24.5 17.8 76 2.7 ESE 2 6 1 3 1017.4 1017.2 -
29/10:00pm 22.1 24.2 18.1 78 2.5 SE 4 6 2 3 1017.3 1017.1 -
29/09:30pm 22.3 24.9 18.3 78 2.5 SE 2 6 1 3 1017.2 1017.0 -
29/09:00pm 22.4 24.9 18.2 77 2.6 SE 2 9 1 5 1017.2 1017.0 0.0
29/08:30pm 22.5 25.0 18.1 76 2.8 ESE 2 6 1 3 1017.1 1016.9 -
29/08:00pm 22.5 24.8 17.8 75 2.9 ESE 2 9 1 5 1016.8 1016.6 -
29/07:30pm 22.6 24.5 17.7 74 3.0 ESE 4 11 2 6 1016.6 1016.4 -
29/07:00pm 22.6 24.4 17.3 72 3.3 ESE 4 7 2 4 1016.3 1016.1 -
29/06:30pm 22.5 24.1 16.8 70 3.5 SE 4 7 2 4 1016.1 1015.9 -
29/06:00pm 22.7 23.8 16.5 68 3.8 ESE 6 11 3 6 1015.8 1015.6 -
29/05:30pm 23.2 23.4 16.7 67 4.0 E 11 19 6 10 1015.3 1015.1 -
29/05:00pm 23.6 23.6 17.1 67 4.0 E 13 20 7 11 1014.9 1014.7 -
29/04:30pm 24.5 24.9 17.2 63 4.5 ESE 11 20 6 11 1014.3 1014.1 -
29/04:00pm 26.0 26.9 17.6 60 5.3 ESE 9 17 5 9 1014.0 1013.8 -
29/03:30pm 25.4 24.5 16.8 59 5.3 E 17 30 9 16 1013.8 1013.6 -
29/03:00pm 26.2 26.1 17.0 57 5.7 E 13 24 7 13 1013.8 1013.6 -
29/02:30pm 26.1 25.9 17.7 60 5.3 ESE 15 22 8 12 1013.6 1013.4 -
29/02:00pm 26.1 25.6 17.7 60 5.3 E 17 30 9 16 1013.6 1013.4 -
29/01:30pm 27.3 27.1 17.5 55 6.2 E 15 24 8 13 1013.6 1013.4 -
29/01:00pm 27.9 27.2 17.4 52 6.6 ESE 17 30 9 16 1013.6 1013.4 -
29/12:30pm 28.0 27.4 17.5 52 6.6 E 17 26 9 14 1013.8 1013.6 -
29/12:00pm 28.6 28.6 17.2 50 7.2 ESE 13 22 7 12 1014.0 1013.8 -
29/11:30am 29.0 29.4 17.2 49 7.4 ESE 11 19 6 10 1014.2 1014.0 -
29/11:00am 28.9 29.2 16.1 46 7.9 E 9 19 5 10 1014.4 1014.2 -
29/10:30am 28.4 27.9 13.9 41 8.7 ESE 9 17 5 9 1014.8 1014.6 -
29/10:00am 27.5 28.4 16.5 51 6.8 ESE 7 17 4 9 1015.0 1014.8 -
29/09:30am 27.0 28.1 17.2 55 6.1 E 7 13 4 7 1014.9 1014.7 -
 
Date/Time
EST
Temp
°C
App
Temp
°C
Dew
Point
Rel
Hum
%
Delta-T
°C
Wind Press
QNH
hPa
Press
MSL
hPa
Rain
since 9 am
mm
Dir
 
Spd
km/h
Gust
km/h
Spd
kts
Gust
kts
28/07:00pm 24.2 27.0 18.8 72 3.4 SE 2 4 1 2 1011.1 1010.9 0.0
28/06:30pm 24.9 28.1 18.8 69 3.9 CALM 0 2 0 1 1010.4 1010.2 0.0
28/06:00pm 26.1 29.0 18.2 61 5.0 CALM 0 2 0 1 1009.9 1009.7 0.0
28/05:30pm 27.1 29.7 17.6 56 6.0 CALM 0 4 0 2 1009.5 1009.3 0.0
28/05:00pm 28.0 30.1 17.2 52 6.8 SE 2 4 1 2 1009.3 1009.1 0.0
28/04:30pm 27.7 29.9 17.5 53 6.4 SE 2 4 1 2 1009.2 1009.0 0.0
28/04:00pm 27.8 29.4 17.0 51 6.8 SE 4 7 2 4 1009.1 1008.9 0.0
28/03:30pm 27.6 29.1 17.5 54 6.4 ESE 6 11 3 6 1009.3 1009.1 0.0
28/03:00pm 26.9 29.4 19.0 62 5.1 ESE 4 11 2 6 1009.3 1009.1 0.0
28/02:30pm 27.9 29.3 17.4 52 6.6 SE 6 17 3 9 1009.6 1009.4 0.0
28/02:00pm 29.9 30.8 16.7 45 8.3 SSE 7 17 4 9 1009.6 1009.4 0.0
28/01:30pm 30.9 30.8 16.1 41 9.2 ESE 11 17 6 9 1010.0 1009.8 0.0
28/01:00pm 31.3 30.9 17.2 42 9.0 ESE 15 26 8 14 1010.1 1009.9 0.0
28/12:30pm 32.3 32.8 17.4 41 9.5 ESE 11 19 6 10 1010.4 1010.2 0.0
28/12:00pm 33.3 34.8 19.0 42 9.4 E 9 15 5 8 1010.0 1009.8 0.0
28/11:30am 31.8 32.3 20.1 50 7.8 E 17 24 9 13 1010.2 1010.0 0.0
28/11:00am 34.1 34.1 15.1 32 11.8 NNE 9 13 5 7 1010.0 1009.8 0.0
28/10:30am 33.6 33.4 15.6 34 11.3 N 11 17 6 9 1010.1 1009.9 0.0
28/10:00am 32.9 33.0 15.4 35 10.9 N 9 15 5 8 1010.4 1010.2 0.0
28/09:30am 32.0 30.9 14.2 34 10.9 N 13 17 7 9 1010.7 1010.5 0.0
28/09:00am 30.9 30.4 14.9 37 9.8 NNE 11 15 6 8 1010.9 1010.7 1.4
28/08:30am 30.1 30.1 14.2 38 9.6 NNE 7 13 4 7 1010.9 1010.7 1.4
28/08:00am 29.1 29.4 14.9 42 8.7 NNE 7 9 4 5 1010.8 1010.6 1.4
28/07:30am 28.4 28.5 13.9 41 8.7 N 6 9 3 5 1010.6 1010.4 1.4
28/07:00am 27.4 28.7 15.1 47 7.5 NE 2 9 1 5 1010.3 1010.1 1.4
28/06:30am 25.2 25.9 15.5 55 5.9 ENE 6 9 3 5 1010.1 1009.9 1.4
28/06:00am 23.5 24.9 15.5 60 4.8 NE 2 9 1 5 1009.9 1009.7 1.4
28/05:30am 22.2 23.6 15.5 66 4.0 NNE 2 7 1 4 1009.5 1009.3 1.4
28/05:00am 21.9 23.5 16.0 69 3.6 N 2 4 1 2 1009.4 1009.2 1.4
28/04:30am 22.2 24.3 16.2 69 3.6 CALM 0 4 0 2 1009.2 1009.0 1.4
28/04:00am 22.6 23.8 15.9 66 4.1 ENE 4 6 2 3 1009.3 1009.1 1.4
28/03:30am 23.1 23.7 15.9 64 4.4 NE 7 9 4 5 1009.3 1009.1 1.4
28/03:00am 23.5 23.5 13.7 54 5.7 ENE 6 7 3 4 1009.0 1008.8 1.4
28/02:30am 24.1 24.2 11.4 45 7.2 NNE 2 6 1 3 1008.8 1008.6 1.4
28/02:00am 25.7 25.5 11.8 42 8.0 NNW 4 9 2 5 1008.9 1008.7 1.4
28/01:30am 25.3 25.2 12.2 44 7.5 NW 4 7 2 4 1009.2 1009.0 1.4
28/01:00am 25.4 25.8 12.6 45 7.4 E 2 6 1 3 1009.6 1009.4 1.4
28/12:30am 26.5 26.0 12.2 41 8.3 WNW 6 13 3 7 1010.1 1009.9 1.4
28/12:00am 25.8 26.4 11.9 42 8.0 CALM 0 0 0 0 1010.3 1010.1 1.4

Other Formats:

Comma delimited format used in spreadsheet applications
http://www.bom.gov.au/fwo/IDQ60801/IDQ60801.95572.axf

JavaScript Object Notation format (JSON) in row-major order
http://www.bom.gov.au/fwo/IDQ60801/IDQ60801.95572.json